Time;durP1;ratioP1;P1;durP2;ratioP2;P2;SDS_P1;SDS_P2;PMS_P1;PMS_P2;Temp;Humidity;BMP_temperature;BMP_pressure;BME280_temperature;BME280_humidity;BME280_pressure;Samples;Min_cycle;Max_cycle;Signal;HPM_P1;HPM_P2
2023/08/27 00:00:10;;;;;;;10.80;5.10;;;;;;;20.28;100.00;100173.13;105834;1253;73626;-62
2023/08/27 00:02:40;;;;;;;12.00;5.50;;;;;;;20.29;100.00;100168.27;105884;1257;67282;-62
2023/08/27 00:05:07;;;;;;;9.50;6.00;;;;;;;20.29;100.00;100167.63;106000;1257;72842;-64
2023/08/27 00:07:36;;;;;;;10.20;5.60;;;;;;;20.30;100.00;100168.75;105887;1254;61231;-62
2023/08/27 00:10:04;;;;;;;13.30;6.60;;;;;;;20.32;100.00;100170.46;105754;1254;61263;-62
2023/08/27 00:12:31;;;;;;;9.50;5.50;;;;;;;20.33;100.00;100164.01;105742;1256;74711;-60
2023/08/27 00:14:58;;;;;;;10.60;5.50;;;;;;;20.34;100.00;100161.96;106081;1256;66018;-63
2023/08/27 00:17:25;;;;;;;8.50;5.20;;;;;;;20.36;100.00;100163.63;105516;1257;73710;-62
2023/08/27 00:19:52;;;;;;;9.30;5.40;;;;;;;20.36;100.00;100163.52;105674;1255;61307;-61
2023/08/27 00:22:19;;;;;;;8.60;5.40;;;;;;;20.36;100.00;100159.66;105569;1255;61202;-60
2023/08/27 00:24:47;;;;;;;9.30;5.80;;;;;;;20.36;100.00;100158.81;105949;1256;73417;-61
2023/08/27 00:27:14;;;;;;;9.20;5.00;;;;;;;20.36;100.00;100162.94;105471;1262;66580;-64
2023/08/27 00:29:41;;;;;;;10.30;6.00;;;;;;;20.36;100.00;100162.79;105564;1254;71996;-61
2023/08/27 00:32:08;;;;;;;12.00;5.90;;;;;;;20.36;100.00;100165.21;105546;1260;61276;-61
2023/08/27 00:34:51;;;;;;;10.80;5.20;;;;;;;20.34;100.00;100160.01;105424;1254;61263;-62
2023/08/27 00:37:18;;;;;;;8.70;5.30;;;;;;;20.32;100.00;100156.12;105922;1255;74735;-64
2023/08/27 00:39:45;;;;;;;9.10;5.50;;;;;;;20.29;100.00;100158.58;105294;1260;67078;-62
2023/08/27 00:42:13;;;;;;;8.50;5.40;;;;;;;20.26;100.00;100159.44;105649;1255;72682;-61
2023/08/27 00:44:40;;;;;;;12.30;5.80;;;;;;;20.23;100.00;100157.02;105677;1259;61848;-61
2023/08/27 00:47:08;;;;;;;8.60;5.50;;;;;;;20.20;100.00;100153.83;105606;1256;61241;-61
2023/08/27 00:49:35;;;;;;;7.10;5.10;;;;;;;20.17;100.00;100152.95;105713;1258;75036;-63
2023/08/27 00:52:03;;;;;;;11.00;5.00;;;;;;;20.16;100.00;100151.42;105831;1260;66081;-61
2023/08/27 00:54:30;;;;;;;9.70;5.70;;;;;;;20.15;100.00;100150.14;105673;1254;72508;-63
2023/08/27 00:56:58;;;;;;;10.50;5.50;;;;;;;20.14;100.00;100148.41;105461;1268;61965;-61
2023/08/27 00:59:25;;;;;;;10.30;5.30;;;;;;;20.13;100.00;100150.48;105606;1260;61191;-64
2023/08/27 01:01:52;;;;;;;7.80;5.20;;;;;;;20.13;100.00;100147.88;105655;1255;75417;-61
2023/08/27 01:04:19;;;;;;;7.20;4.80;;;;;;;20.14;100.00;100151.06;105789;1257;67224;-63
2023/08/27 01:06:46;;;;;;;6.70;5.00;;;;;;;20.15;100.00;100153.02;105794;1254;71431;-61
2023/08/27 01:09:41;;;;;;;10.60;4.70;;;;;;;20.16;100.00;100151.84;105768;1266;61261;-61
2023/08/27 01:12:14;;;;;;;8.20;4.80;;;;;;;20.17;100.00;100146.86;105724;1257;61129;-63
2023/08/27 01:14:43;;;;;;;8.20;4.70;;;;;;;20.19;100.00;100150.84;105701;1255;73275;-62
2023/08/27 01:17:10;;;;;;;13.10;4.80;;;;;;;20.22;100.00;100146.16;105763;1258;67241;-61
2023/08/27 01:19:37;;;;;;;6.90;4.40;;;;;;;20.25;100.00;100151.60;105582;1260;71516;-61
2023/08/27 01:22:04;;;;;;;6.80;4.20;;;;;;;20.28;100.00;100149.26;105837;1260;61279;-63
2023/08/27 01:24:31;;;;;;;10.30;5.00;;;;;;;20.30;100.00;100147.10;105712;1254;61318;-61
2023/08/27 01:26:58;;;;;;;7.60;4.60;;;;;;;20.31;100.00;100146.73;105677;1254;73454;-61
2023/08/27 01:29:50;;;;;;;10.10;4.60;;;;;;;20.32;100.00;100148.60;105766;1257;65952;-65
2023/08/27 01:32:20;;;;;;;9.30;4.70;;;;;;;20.31;100.00;100140.76;105304;1254;72610;-61
2023/08/27 01:34:47;;;;;;;9.60;4.60;;;;;;;20.30;100.00;100144.23;105598;1253;61353;-62
2023/08/27 01:37:14;;;;;;;8.00;4.50;;;;;;;20.29;100.00;100147.50;105465;1258;61327;-63
2023/08/27 01:39:44;;;;;;;7.40;4.70;;;;;;;20.27;100.00;100143.80;105660;1261;74711;-63
2023/08/27 01:42:11;;;;;;;7.80;4.20;;;;;;;20.26;100.00;100139.02;105664;1254;67260;-61
2023/08/27 01:44:38;;;;;;;7.90;4.40;;;;;;;20.25;100.00;100139.00;105756;1259;71264;-62
2023/08/27 01:47:05;;;;;;;7.40;4.70;;;;;;;20.22;100.00;100135.52;106128;1257;61285;-64
2023/08/27 01:49:33;;;;;;;8.30;4.60;;;;;;;20.21;100.00;100135.20;105712;1255;61417;-63
2023/08/27 01:52:00;;;;;;;8.70;5.30;;;;;;;20.18;100.00;100137.45;105695;1254;73424;-61
2023/08/27 01:54:28;;;;;;;7.00;4.60;;;;;;;20.18;100.00;100142.63;105869;1255;67073;-62
2023/08/27 01:56:55;;;;;;;9.10;4.80;;;;;;;20.16;100.00;100152.89;105619;1261;70269;-61
2023/08/27 01:59:23;;;;;;;8.00;4.50;;;;;;;20.13;100.00;100145.66;105789;1257;61256;-63
2023/08/27 02:01:50;;;;;;;7.30;5.10;;;;;;;20.12;100.00;100146.12;105662;1257;61169;-61
2023/08/27 02:04:17;;;;;;;9.40;5.30;;;;;;;20.09;100.00;100156.20;105902;1257;74715;-61
2023/08/27 02:06:44;;;;;;;8.80;5.20;;;;;;;20.06;100.00;100156.53;105831;1257;65940;-63
2023/08/27 02:09:12;;;;;;;8.00;5.20;;;;;;;20.03;100.00;100158.35;106238;1257;72937;-65
2023/08/27 02:11:39;;;;;;;8.30;4.80;;;;;;;19.98;100.00;100159.04;105925;1254;61850;-67
2023/08/27 02:14:06;;;;;;;7.20;4.70;;;;;;;19.91;100.00;100156.31;105779;1257;61180;-65
2023/08/27 02:16:33;;;;;;;8.90;4.30;;;;;;;19.82;100.00;100155.15;105971;1254;74488;-60
2023/08/27 02:19:01;;;;;;;11.80;5.10;;;;;;;19.74;100.00;100145.79;105872;1255;67230;-60
2023/08/27 02:21:28;;;;;;;8.50;5.10;;;;;;;19.65;100.00;100149.06;105811;1255;71409;-61
2023/08/27 02:23:55;;;;;;;6.10;4.60;;;;;;;19.58;100.00;100150.11;105484;1254;62535;-66
2023/08/27 02:26:22;;;;;;;9.40;5.00;;;;;;;19.52;100.00;100155.37;105708;1256;61097;-60
2023/08/27 02:28:50;;;;;;;7.00;4.00;;;;;;;19.46;100.00;100157.66;105693;1257;74746;-61
2023/08/27 02:31:17;;;;;;;7.90;4.90;;;;;;;19.42;100.00;100160.21;105797;1256;67196;-66
2023/08/27 02:33:44;;;;;;;6.50;4.10;;;;;;;19.40;100.00;100163.73;105642;1257;71047;-65
2023/08/27 02:36:11;;;;;;;5.50;3.90;;;;;;;19.39;100.00;100161.11;105603;1257;61225;-58
2023/08/27 02:38:38;;;;;;;5.40;3.50;;;;;;;19.38;100.00;100164.43;105411;1257;61250;-59
2023/08/27 02:41:05;;;;;;;7.30;3.60;;;;;;;19.36;100.00;100164.78;105815;1256;73432;-60
2023/08/27 02:43:32;;;;;;;7.20;4.10;;;;;;;19.35;100.00;100160.58;105962;1257;66766;-67
2023/08/27 02:46:00;;;;;;;7.90;4.70;;;;;;;19.33;100.00;100149.77;105981;1254;73244;-64
2023/08/27 02:48:27;;;;;;;8.60;4.50;;;;;;;19.31;100.00;100147.99;105752;1254;62155;-59
2023/08/27 02:50:54;;;;;;;12.40;4.20;;;;;;;19.29;100.00;100141.63;105740;1254;61285;-60
2023/08/27 02:53:21;;;;;;;7.50;3.50;;;;;;;19.25;100.00;100130.52;105605;1257;74715;-60
2023/08/27 02:55:48;;;;;;;6.40;3.80;;;;;;;19.21;100.00;100130.05;105750;1257;67271;-61
2023/08/27 02:58:15;;;;;;;6.00;3.70;;;;;;;19.17;100.00;100132.54;105863;1254;72752;-62
2023/08/27 03:00:42;;;;;;;6.00;3.80;;;;;;;19.13;100.00;100125.44;105500;1254;62143;-59
2023/08/27 03:03:09;;;;;;;6.80;4.10;;;;;;;19.11;100.00;100125.94;105698;1253;61286;-59
2023/08/27 03:05:36;;;;;;;8.00;4.10;;;;;;;19.08;100.00;100124.63;105766;1257;74657;-68
2023/08/27 03:08:05;;;;;;;6.10;3.90;;;;;;;19.06;100.00;100130.59;105780;1254;66921;-61
2023/08/27 03:10:32;;;;;;;6.40;3.80;;;;;;;19.06;100.00;100136.64;105637;1254;71509;-60
2023/08/27 03:12:59;;;;;;;7.90;3.80;;;;;;;19.06;100.00;100134.77;105692;1254;61269;-60
2023/08/27 03:15:26;;;;;;;7.10;4.60;;;;;;;19.08;100.00;100139.11;105714;1254;61218;-60
2023/08/27 03:17:53;;;;;;;9.10;4.40;;;;;;;19.10;100.00;100138.41;105672;1257;73515;-59
2023/08/27 03:20:21;;;;;;;7.40;4.20;;;;;;;19.14;100.00;100137.71;106104;1254;66994;-61
2023/08/27 03:22:48;;;;;;;5.60;3.80;;;;;;;19.17;100.00;100134.96;105731;1254;72669;-61
2023/08/27 03:25:15;;;;;;;5.10;3.60;;;;;;;19.20;100.00;100135.05;105875;1257;61902;-59
2023/08/27 03:27:42;;;;;;;6.40;4.20;;;;;;;19.23;100.00;100141.65;105940;1257;61376;-60
2023/08/27 03:30:09;;;;;;;7.70;4.40;;;;;;;19.29;100.00;100144.55;105804;1253;73445;-59
2023/08/27 03:32:36;;;;;;;7.00;4.00;;;;;;;19.32;100.00;100147.84;105839;1256;66170;-59
2023/08/27 03:35:04;;;;;;;9.00;3.90;;;;;;;19.33;100.00;100151.73;105642;1254;72613;-60
2023/08/27 03:37:31;;;;;;;6.20;4.20;;;;;;;19.33;100.00;100153.84;105636;1260;62785;-60
2023/08/27 03:40:00;;;;;;;6.20;4.00;;;;;;;19.33;100.00;100152.42;105819;1256;61220;-59
2023/08/27 03:42:27;;;;;;;6.90;4.60;;;;;;;19.33;100.00;100143.80;105646;1257;74496;-59
2023/08/27 03:44:54;;;;;;;9.40;4.60;;;;;;;19.34;100.00;100135.36;105993;1254;67180;-60
2023/08/27 03:47:21;;;;;;;6.30;4.60;;;;;;;19.36;100.00;100132.31;105437;1257;71518;-59
2023/08/27 03:49:48;;;;;;;6.90;4.20;;;;;;;19.41;100.00;100135.82;105928;1254;61281;-64
2023/08/27 03:52:16;;;;;;;6.00;3.80;;;;;;;19.45;100.00;100136.14;105527;1257;61147;-61
2023/08/27 03:54:43;;;;;;;7.80;4.50;;;;;;;19.50;100.00;100131.07;105715;1256;72745;-59
2023/08/27 03:57:10;;;;;;;8.00;4.00;;;;;;;19.54;100.00;100123.99;105813;1253;67228;-69
2023/08/27 03:59:37;;;;;;;8.80;4.00;;;;;;;19.60;100.00;100116.71;105848;1253;71463;-60
2023/08/27 04:02:04;;;;;;;8.60;4.40;;;;;;;19.65;100.00;100109.46;105958;1254;61151;-70
2023/08/27 04:04:32;;;;;;;7.50;4.60;;;;;;;19.70;100.00;100106.98;105826;1254;61191;-59
2023/08/27 04:07:01;;;;;;;6.30;4.40;;;;;;;19.75;100.00;100102.54;105783;1253;73400;-59
2023/08/27 04:09:28;;;;;;;7.00;4.50;;;;;;;19.81;100.00;100111.86;105690;1253;67658;-60
2023/08/27 04:11:55;;;;;;;9.40;4.50;;;;;;;19.85;100.00;100112.91;105958;1257;72751;-68
2023/08/27 04:14:23;;;;;;;6.10;4.00;;;;;;;19.88;100.00;100116.70;105845;1254;62793;-60
2023/08/27 04:16:50;;;;;;;6.30;3.90;;;;;;;19.90;100.00;100119.23;105622;1253;61167;-59
2023/08/27 04:19:17;;;;;;;7.30;4.40;;;;;;;19.94;100.00;100114.60;106035;1253;73291;-67
2023/08/27 04:21:44;;;;;;;9.20;4.70;;;;;;;19.96;100.00;100116.67;105591;1257;67848;-59
2023/08/27 04:24:11;;;;;;;6.70;4.60;;;;;;;19.96;100.00;100120.86;105803;1254;72363;-67
2023/08/27 04:26:38;;;;;;;6.30;3.90;;;;;;;19.95;100.00;100116.93;105833;1253;62348;-61
2023/08/27 04:29:06;;;;;;;6.20;4.30;;;;;;;19.93;100.00;100114.76;105841;1254;61365;-60
2023/08/27 04:31:33;;;;;;;7.20;4.70;;;;;;;19.92;100.00;100112.14;105898;1254;74359;-63
2023/08/27 04:34:00;;;;;;;8.30;4.70;;;;;;;19.90;100.00;100116.15;105470;1255;67953;-58
2023/08/27 04:36:27;;;;;;;7.00;4.50;;;;;;;19.88;100.00;100111.20;105593;1257;72393;-59
2023/08/27 04:38:54;;;;;;;6.70;4.70;;;;;;;19.87;100.00;100112.45;105805;1257;61222;-59
2023/08/27 04:41:22;;;;;;;8.00;4.40;;;;;;;19.86;100.00;100107.32;105873;1254;61224;-59
2023/08/27 04:43:49;;;;;;;9.50;5.40;;;;;;;19.85;100.00;100100.42;106028;1256;74505;-64
2023/08/27 04:46:17;;;;;;;7.10;4.50;;;;;;;19.81;100.00;100090.96;105677;1253;68012;-59
2023/08/27 04:48:45;;;;;;;7.10;5.00;;;;;;;19.79;100.00;100089.77;105741;1257;73183;-62
2023/08/27 04:51:14;;;;;;;5.90;5.00;;;;;;;19.77;100.00;100084.13;105625;1257;61877;-61
2023/08/27 04:53:42;;;;;;;7.10;4.50;;;;;;;19.77;100.00;100087.27;105585;1254;61241;-60
2023/08/27 04:56:08;;;;;;;6.50;5.00;;;;;;;19.78;100.00;100090.66;105795;1256;74745;-61
2023/08/27 04:58:36;;;;;;;6.80;5.00;;;;;;;19.81;100.00;100093.98;105923;1254;67649;-66
2023/08/27 05:01:03;;;;;;;6.50;4.70;;;;;;;19.85;100.00;100103.96;105579;1253;72076;-59
2023/08/27 05:03:30;;;;;;;8.40;5.10;;;;;;;19.88;100.00;100119.45;105495;1254;61216;-57
2023/08/27 05:05:57;;;;;;;8.90;5.80;;;;;;;19.92;100.00;100122.99;105804;1254;61110;-64
2023/08/27 05:08:24;;;;;;;8.80;5.30;;;;;;;20.03;100.00;100121.46;105620;1253;73717;-59
2023/08/27 05:10:51;;;;;;;8.40;5.60;;;;;;;20.17;100.00;100125.32;105390;1254;67240;-60
2023/08/27 05:13:19;;;;;;;7.00;5.50;;;;;;;20.32;100.00;100129.16;105681;1254;70953;-60
2023/08/27 05:15:46;;;;;;;8.90;5.90;;;;;;;20.48;100.00;100126.52;105536;1257;62665;-68
2023/08/27 05:18:13;;;;;;;7.70;6.20;;;;;;;20.60;100.00;100122.47;105685;1254;61304;-60
2023/08/27 05:20:41;;;;;;;9.20;6.10;;;;;;;20.72;100.00;100123.34;105630;1257;73481;-59
2023/08/27 05:23:08;;;;;;;7.00;5.20;;;;;;;20.79;100.00;100121.71;105618;1257;66070;-59
2023/08/27 05:25:35;;;;;;;9.50;6.30;;;;;;;20.85;100.00;100110.10;105583;1253;71447;-61
2023/08/27 05:28:03;;;;;;;9.30;6.10;;;;;;;20.92;100.00;100107.44;105655;1257;61219;-60
2023/08/27 05:30:30;;;;;;;8.00;6.30;;;;;;;20.97;100.00;100111.45;105921;1257;61212;-61
2023/08/27 05:32:58;;;;;;;10.10;7.70;;;;;;;21.01;100.00;100103.69;105443;1253;75711;-59
2023/08/27 05:35:26;;;;;;;10.20;6.80;;;;;;;21.07;100.00;100101.77;105746;1257;66022;-60
2023/08/27 05:37:53;;;;;;;10.10;6.70;;;;;;;21.12;100.00;100101.80;105562;1254;72758;-60
2023/08/27 05:40:20;;;;;;;12.50;7.60;;;;;;;21.16;100.00;100104.62;105690;1254;62409;-60
2023/08/27 05:42:47;;;;;;;9.10;6.50;;;;;;;21.23;100.00;100107.05;105769;1257;61291;-59
2023/08/27 05:45:14;;;;;;;9.70;6.20;;;;;;;21.36;100.00;100105.60;105795;1254;74067;-60
2023/08/27 05:47:41;;;;;;;9.90;6.90;;;;;;;21.50;100.00;100104.93;105891;1258;66034;-59
2023/08/27 05:50:09;;;;;;;9.30;7.20;;;;;;;21.68;100.00;100108.82;105861;1254;72692;-59
2023/08/27 05:52:36;;;;;;;9.70;7.00;;;;;;;21.86;100.00;100111.91;105833;1254;62055;-61
2023/08/27 05:55:05;;;;;;;10.40;7.50;;;;;;;22.06;100.00;100109.20;105667;1253;61275;-59
2023/08/27 05:57:32;;;;;;;8.80;6.30;;;;;;;22.25;100.00;100095.56;105873;1254;73404;-58
2023/08/27 05:59:59;;;;;;;7.60;6.20;;;;;;;22.44;100.00;100086.80;105878;1253;65846;-58
2023/08/27 06:02:26;;;;;;;8.50;6.90;;;;;;;22.65;100.00;100081.73;105942;1254;72741;-67
2023/08/27 06:04:53;;;;;;;9.50;6.70;;;;;;;22.85;100.00;100074.02;105484;1253;61403;-59
2023/08/27 06:07:20;;;;;;;8.40;6.10;;;;;;;23.00;100.00;100072.68;105827;1253;61244;-59
2023/08/27 06:09:47;;;;;;;9.40;6.60;;;;;;;23.18;100.00;100068.53;105758;1255;74694;-59
2023/08/27 06:12:14;;;;;;;9.30;6.20;;;;;;;23.37;100.00;100057.03;105716;1253;67469;-59
2023/08/27 06:14:41;;;;;;;10.30;6.40;;;;;;;23.55;100.00;100047.48;105918;1254;71788;-66
2023/08/27 06:17:09;;;;;;;7.70;5.70;;;;;;;23.70;100.00;100046.15;105710;1257;61344;-59
2023/08/27 06:19:36;;;;;;;11.30;5.60;;;;;;;23.98;100.00;100045.17;105757;1253;61361;-59
2023/08/27 06:22:15;;;;;;;7.30;5.40;;;;;;;24.72;100.00;100041.27;105729;1252;73261;-60
2023/08/27 06:24:42;;;;;;;6.30;5.20;;;;;;;25.63;100.00;100038.19;105794;1255;67300;-62
2023/08/27 06:27:09;;;;;;;5.70;5.00;;;;;;;26.61;100.00;100026.13;105667;1253;71270;-63
2023/08/27 06:29:36;;;;;;;6.80;5.10;;;;;;;27.52;100.00;100001.45;105792;1253;61264;-61
2023/08/27 06:32:04;;;;;;;6.50;5.10;;;;;;;28.30;100.00;99981.27;105898;1253;61229;-62
2023/08/27 06:34:33;;;;;;;6.20;5.00;;;;;;;29.07;100.00;99967.66;105716;1252;73500;-65
2023/08/27 06:37:00;;;;;;;5.80;4.80;;;;;;;29.76;100.00;99945.23;105628;1257;66026;-63
2023/08/27 06:39:28;;;;;;;5.80;4.70;;;;;;;30.27;100.00;99928.94;105689;1257;70738;-63
2023/08/27 06:41:55;;;;;;;5.60;4.10;;;;;;;30.66;100.00;99928.31;105635;1253;61359;-63
2023/08/27 06:44:22;;;;;;;5.70;4.90;;;;;;;31.10;100.00;99918.93;105733;1254;61247;-62
2023/08/27 06:46:50;;;;;;;6.60;4.20;;;;;;;31.51;100.00;99913.68;105757;1255;75492;-63
2023/08/27 06:49:17;;;;;;;5.50;4.50;;;;;;;31.95;100.00;99919.26;105768;1253;67187;-63
2023/08/27 06:51:45;;;;;;;5.20;4.10;;;;;;;32.29;100.00;99916.14;105493;1254;72683;-64
2023/08/27 06:54:12;;;;;;;6.80;4.30;;;;;;;32.56;100.00;99923.70;105820;1253;61449;-64
2023/08/27 06:56:39;;;;;;;6.10;4.20;;;;;;;32.85;100.00;99925.04;105946;1253;61261;-68
2023/08/27 06:59:10;;;;;;;6.60;4.80;;;;;;;33.12;100.00;99922.30;105798;1253;65368;-64
2023/08/27 07:01:39;;;;;;;5.80;4.50;;;;;;;33.42;100.00;99913.96;105683;1257;67446;-63
2023/08/27 07:04:06;;;;;;;6.80;5.10;;;;;;;33.65;100.00;99918.66;105711;1253;63953;-62
2023/08/27 07:06:33;;;;;;;6.80;5.10;;;;;;;33.73;100.00;99917.33;105928;1252;61262;-67
2023/08/27 07:09:01;;;;;;;6.60;4.70;;;;;;;33.76;100.00;99919.35;106027;1253;61132;-68
2023/08/27 07:11:28;;;;;;;8.00;5.30;;;;;;;33.81;100.00;99921.16;105768;1257;67560;-62
2023/08/27 07:13:55;;;;;;;7.00;5.50;;;;;;;33.80;100.00;99916.75;105705;1257;61164;-62
2023/08/27 07:16:23;;;;;;;10.70;6.10;;;;;;;33.89;100.00;99920.68;105671;1257;63864;-62
2023/08/27 07:18:50;;;;;;;6.40;5.20;;;;;;;34.09;99.59;99918.88;105813;1254;61276;-64
2023/08/27 07:21:17;;;;;;;9.40;6.50;;;;;;;34.24;90.84;99911.60;105848;1256;61202;-69
2023/08/27 07:23:45;;;;;;;7.70;5.90;;;;;;;34.21;85.84;99905.80;105609;1257;74970;-62
2023/08/27 07:26:12;;;;;;;8.30;5.70;;;;;;;34.06;87.25;99906.74;105776;1254;61324;-62
2023/08/27 07:28:39;;;;;;;6.80;5.80;;;;;;;33.77;90.17;99910.90;105729;1254;72648;-62
2023/08/27 07:31:06;;;;;;;12.50;6.00;;;;;;;33.35;90.57;99908.73;105849;1254;61302;-64
2023/08/27 07:33:34;;;;;;;7.10;5.50;;;;;;;32.90;96.46;99907.39;105786;1253;61426;-61
2023/08/27 07:36:01;;;;;;;9.70;6.20;;;;;;;32.54;99.89;99908.61;105799;1257;66422;-63
2023/08/27 07:38:29;;;;;;;8.00;6.40;;;;;;;32.17;100.00;99906.36;105773;1253;67175;-63
2023/08/27 07:40:56;;;;;;;7.20;5.90;;;;;;;31.74;100.00;99903.39;105887;1257;72580;-68
2023/08/27 07:43:24;;;;;;;8.20;6.10;;;;;;;31.38;100.00;99905.11;105913;1257;61260;-64
2023/08/27 07:45:51;;;;;;;8.90;6.30;;;;;;;31.03;100.00;99914.23;105872;1253;61118;-62
2023/08/27 07:48:18;;;;;;;9.00;6.20;;;;;;;30.70;100.00;99912.80;105711;1256;75273;-64
2023/08/27 07:50:47;;;;;;;7.50;5.90;;;;;;;30.46;100.00;99918.70;105505;1257;66045;-62
2023/08/27 07:53:14;;;;;;;8.60;6.10;;;;;;;30.37;100.00;99915.11;105564;1257;73208;-64
2023/08/27 07:55:41;;;;;;;8.30;6.60;;;;;;;30.22;100.00;99915.55;105664;1257;61217;-64
2023/08/27 07:58:08;;;;;;;8.80;7.40;;;;;;;30.12;100.00;99909.08;105939;1257;61260;-66
2023/08/27 08:00:36;;;;;;;8.50;6.80;;;;;;;30.17;100.00;99906.73;105714;1252;74059;-65
2023/08/27 08:03:04;;;;;;;9.60;7.40;;;;;;;30.37;100.00;99908.62;105869;1257;67317;-64
2023/08/27 08:05:31;;;;;;;8.80;6.70;;;;;;;30.61;100.00;99902.77;105431;1257;71551;-63
2023/08/27 08:07:58;;;;;;;8.70;6.90;;;;;;;30.73;100.00;99903.42;105654;1257;61250;-62
2023/08/27 08:10:26;;;;;;;9.40;7.70;;;;;;;30.73;100.00;99904.19;105750;1254;61273;-64
2023/08/27 08:12:53;;;;;;;9.10;7.30;;;;;;;30.65;100.00;99906.67;105684;1253;74754;-63
2023/08/27 08:15:20;;;;;;;8.40;6.60;;;;;;;30.43;100.00;99908.77;105670;1255;67017;-64
2023/08/27 08:17:47;;;;;;;10.00;8.20;;;;;;;30.14;100.00;99909.80;105580;1257;73106;-63
2023/08/27 08:20:14;;;;;;;9.30;7.80;;;;;;;29.86;100.00;99907.71;105594;1253;60611;-62
2023/08/27 08:22:41;;;;;;;10.10;7.30;;;;;;;29.62;100.00;99910.79;105632;1253;61218;-63
2023/08/27 08:25:09;;;;;;;8.50;7.50;;;;;;;29.33;100.00;99905.90;105967;1253;74722;-66
2023/08/27 08:27:36;;;;;;;9.90;7.90;;;;;;;29.04;100.00;99904.69;105657;1253;67038;-63
2023/08/27 08:30:04;;;;;;;9.50;8.40;;;;;;;28.83;100.00;99903.57;105730;1254;72693;-64
2023/08/27 08:32:31;;;;;;;10.30;8.50;;;;;;;28.68;100.00;99907.83;105673;1253;61211;-66
2023/08/27 08:34:58;;;;;;;10.10;7.90;;;;;;;28.51;100.00;99912.14;105770;1256;61247;-62
2023/08/27 08:37:26;;;;;;;9.30;8.00;;;;;;;28.34;100.00;99905.70;105877;1252;74434;-65
2023/08/27 08:39:53;;;;;;;13.60;8.70;;;;;;;28.16;100.00;99901.77;105719;1257;65940;-62
2023/08/27 08:42:26;;;;;;;12.40;8.50;;;;;;;28.02;100.00;99899.34;105644;1256;72717;-61
2023/08/27 08:45:15;;;;;;;11.00;9.00;;;;;;;27.93;100.00;99898.80;105637;1257;61226;-62
2023/08/27 08:47:43;;;;;;;12.00;9.00;;;;;;;27.97;100.00;99896.06;105655;1253;61219;-62
2023/08/27 08:50:11;;;;;;;10.10;8.80;;;;;;;28.05;100.00;99895.95;105831;1253;74821;-63
2023/08/27 08:52:42;;;;;;;9.20;8.30;;;;;;;28.21;100.00;99895.35;105629;1253;69763;-61
2023/08/27 08:55:09;;;;;;;;;;;;;;;28.43;100.00;99894.73;105667;1253;72714;-65
2023/08/27 08:57:45;;;;;;;10.60;9.20;;;;;;;28.61;100.00;99894.02;105589;1254;61266;-63
2023/08/27 09:00:12;;;;;;;10.50;8.50;;;;;;;28.71;100.00;99884.30;105561;1256;61196;-62
2023/08/27 09:02:39;;;;;;;9.80;8.10;;;;;;;28.82;100.00;99881.60;105751;1253;74136;-62
2023/08/27 09:05:08;;;;;;;10.00;8.20;;;;;;;28.93;100.00;99877.48;105709;1253;66316;-65
2023/08/27 09:07:35;;;;;;;10.30;8.80;;;;;;;29.02;100.00;99874.02;106037;1257;73201;-65
2023/08/27 09:10:04;;;;;;;9.30;8.20;;;;;;;29.13;100.00;99875.96;105536;1259;61230;-62
2023/08/27 09:12:31;;;;;;;11.50;9.10;;;;;;;29.27;100.00;99871.57;105811;1253;61224;-62
2023/08/27 09:14:58;;;;;;;9.60;8.40;;;;;;;29.37;100.00;99864.90;105687;1253;74751;-62
2023/08/27 09:17:25;;;;;;;9.30;8.30;;;;;;;29.44;100.00;99863.43;105953;1256;299815;-64
2023/08/27 09:19:54;;;;;;;8.20;7.20;;;;;;;29.48;100.00;99861.59;105443;1258;73585;-65
2023/08/27 09:22:21;;;;;;;9.00;7.10;;;;;;;29.57;100.00;99862.91;105474;1257;61337;-63
2023/08/27 09:24:48;;;;;;;7.70;6.90;;;;;;;29.69;100.00;99864.58;105650;1252;61155;-61
2023/08/27 09:27:15;;;;;;;8.10;6.40;;;;;;;29.86;100.00;99856.43;105735;1252;74704;-62
2023/08/27 09:29:42;;;;;;;7.10;5.40;;;;;;;30.07;100.00;99854.67;105710;1253;67205;-63
2023/08/27 09:32:21;;;;;;;9.60;6.20;;;;;;;30.36;100.00;99856.86;105750;1256;72776;-63
2023/08/27 09:34:48;;;;;;;6.80;5.70;;;;;;;30.74;100.00;99851.45;105562;1256;61353;-62
2023/08/27 09:37:15;;;;;;;7.40;5.60;;;;;;;31.08;100.00;99847.58;105948;1253;61120;-65
2023/08/27 09:39:44;;;;;;;6.90;5.50;;;;;;;31.56;100.00;99842.00;105837;1253;73775;-62
2023/08/27 09:42:14;;;;;;;7.10;5.50;;;;;;;32.11;100.00;99842.81;105615;1257;66514;-62
2023/08/27 09:44:48;;;;;;;8.00;5.10;;;;;;;32.57;100.00;99841.10;105768;1257;71428;-61
2023/08/27 09:47:16;;;;;;;6.70;5.60;;;;;;;32.83;96.27;99844.00;105862;1253;61350;-63
2023/08/27 09:49:43;;;;;;;6.70;5.70;;;;;;;32.83;92.33;99839.21;105673;1253;60551;-61
2023/08/27 09:52:10;;;;;;;7.40;6.20;;;;;;;32.70;91.54;99841.39;105841;1257;73546;-64
2023/08/27 09:54:37;;;;;;;8.20;5.80;;;;;;;32.51;91.29;99842.44;105792;1253;61214;-61
2023/08/27 09:57:05;;;;;;;6.70;5.70;;;;;;;32.33;94.93;99835.23;105699;1253;73002;-61
2023/08/27 09:59:31;;;;;;;7.00;5.60;;;;;;;32.21;97.71;99830.13;105644;1259;61282;-62
2023/08/27 10:02:00;;;;;;;5.60;4.70;;;;;;;32.22;99.06;99832.69;105626;1253;61208;-62
2023/08/27 10:04:27;;;;;;;7.30;5.50;;;;;;;32.46;99.92;99828.65;105882;1253;72705;-64
2023/08/27 10:06:54;;;;;;;9.80;6.00;;;;;;;32.90;96.23;99825.38;105782;1253;67561;-61
2023/08/27 10:09:21;;;;;;;8.10;4.50;;;;;;;33.35;91.14;99821.76;105714;1257;62782;-63
2023/08/27 10:11:48;;;;;;;7.00;5.30;;;;;;;33.73;79.31;99816.86;105529;1253;61346;-61
2023/08/27 10:14:18;;;;;;;6.30;5.60;;;;;;;34.02;78.70;99813.70;105653;1256;61116;-61
2023/08/27 10:16:45;;;;;;;6.00;4.60;;;;;;;34.34;78.17;99811.15;105736;1258;65176;-63
2023/08/27 10:19:12;;;;;;;8.30;4.60;;;;;;;34.59;71.82;99807.38;105578;1259;61167;-62
2023/08/27 10:21:39;;;;;;;6.00;5.30;;;;;;;34.76;68.45;99805.10;105751;1258;62736;-60
2023/08/27 10:24:06;;;;;;;6.30;4.40;;;;;;;34.92;68.12;99800.70;105524;1257;61220;-60
2023/08/27 10:26:33;;;;;;;7.40;5.20;;;;;;;35.06;65.54;99796.80;105977;1253;61283;-62
2023/08/27 10:29:01;;;;;;;8.90;5.30;;;;;;;35.14;63.26;99796.16;105815;1259;65885;-63
2023/08/27 10:31:28;;;;;;;5.80;4.50;;;;;;;35.18;65.35;99791.37;105596;1253;61152;-60
2023/08/27 10:33:55;;;;;;;8.00;5.30;;;;;;;35.29;62.47;99785.44;105741;1257;62690;-61
2023/08/27 10:36:28;;;;;;;7.10;4.90;;;;;;;35.39;63.34;99781.20;105727;1257;61289;-61
2023/08/27 10:38:56;;;;;;;6.40;4.90;;;;;;;35.54;63.31;99778.21;105958;1253;61262;-64
2023/08/27 10:41:23;;;;;;;6.60;5.20;;;;;;;35.75;63.49;99775.98;105674;1254;66100;-61
2023/08/27 10:43:50;;;;;;;7.70;4.90;;;;;;;35.92;61.21;99773.30;105763;1253;61278;-61
2023/08/27 10:46:18;;;;;;;7.60;5.40;;;;;;;36.09;60.93;99767.05;105498;1259;64082;-61
2023/08/27 10:48:49;;;;;;;6.00;5.00;;;;;;;36.22;56.58;99757.61;106068;1253;61191;-63
2023/08/27 10:51:18;;;;;;;7.20;5.10;;;;;;;36.29;58.53;99751.57;105809;1254;61285;-61
2023/08/27 10:53:48;;;;;;;6.20;4.70;;;;;;;36.36;58.12;99748.23;105777;1253;64903;-60
2023/08/27 10:56:25;;;;;;;7.60;5.30;;;;;;;36.42;57.60;99742.33;105810;1256;61389;-61
2023/08/27 10:58:52;;;;;;;9.00;5.50;;;;;;;36.46;56.35;99738.30;105712;1253;64296;-61
2023/08/27 11:01:19;;;;;;;6.20;4.80;;;;;;;36.52;56.09;99732.64;105795;1257;61270;-61
2023/08/27 11:03:59;;;;;;;6.40;5.40;;;;;;;36.59;56.42;99717.83;105786;1253;61267;-61
2023/08/27 11:06:33;;;;;;;;;;;;;;;36.69;57.94;99713.50;105616;1257;66096;-65
2023/08/27 11:09:00;;;;;;;9.40;5.50;;;;;;;36.74;55.43;99709.06;105772;1257;61212;-61
2023/08/27 11:11:32;;;;;;;6.30;5.00;;;;;;;36.62;52.72;99709.23;105740;1253;64316;-60
2023/08/27 11:14:06;;;;;;;6.60;4.70;;;;;;;36.42;54.89;99706.36;105872;1258;61263;-61
2023/08/27 11:16:48;;;;;;;7.80;5.50;;;;;;;36.30;57.44;99709.48;105715;1253;61259;-61